Time;durP1;ratioP1;P1;durP2;ratioP2;P2;SDS_P1;SDS_P2;PMS_P1;PMS_P2;Temp;Humidity;BMP_temperature;BMP_pressure;BME280_temperature;BME280_humidity;BME280_pressure;Samples;Min_cycle;Max_cycle;Signal;HPM_P1;HPM_P2
2021/12/11 00:00:17;;;;;;;2.28;1.00;;;;;;;;;;4974458;28;20391;-65
2021/12/11 00:02:44;;;;;;;5.25;1.45;;;;;;;;;;4974388;28;20481;-65
2021/12/11 00:05:13;;;;;;;1.63;1.25;;;;;;;;;;4974157;28;20059;-65
2021/12/11 00:07:40;;;;;;;1.35;1.25;;;;;;;;;;4974150;28;20047;-65
2021/12/11 00:10:19;;;;;;;3.55;1.40;;;;;;;;;;4974338;28;20059;-65
2021/12/11 00:12:53;;;;;;;1.10;0.95;;;;;;;;;;4974179;28;20355;-65
2021/12/11 00:15:23;;;;;;;3.25;1.00;;;;;;;;;;4974371;28;20055;-65
2021/12/11 00:17:56;;;;;;;4.45;1.88;;;;;;;;;;4974204;28;20046;-65
2021/12/11 00:20:25;;;;;;;2.72;1.67;;;;;;;;;;4974547;28;20461;-65
2021/12/11 00:22:52;;;;;;;5.20;1.67;;;;;;;;;;4973874;28;20051;-65
2021/12/11 00:25:19;;;;;;;1.80;1.15;;;;;;;;;;4974147;28;20109;-65
2021/12/11 00:27:48;;;;;;;1.63;1.40;;;;;;;;;;4973845;28;20050;-65
2021/12/11 00:30:27;;;;;;;3.50;1.70;;;;;;;;;;4973996;28;20082;-65
2021/12/11 00:33:07;;;;;;;4.65;2.03;;;;;;;;;;4973650;28;20093;-65
2021/12/11 00:35:35;;;;;;;2.70;1.73;;;;;;;;;;4973846;28;20505;-66
2021/12/11 00:38:09;;;;;;;3.65;1.60;;;;;;;;;;4973176;28;20138;-66
2021/12/11 00:40:36;;;;;;;4.25;1.73;;;;;;;;;;4973879;28;20109;-66
2021/12/11 00:43:05;;;;;;;2.35;1.50;;;;;;;;;;4973465;28;20105;-65
2021/12/11 00:45:36;;;;;;;3.83;1.55;;;;;;;;;;4973699;28;20055;-64
2021/12/11 00:48:12;;;;;;;3.85;1.67;;;;;;;;;;4973425;28;20105;-65
2021/12/11 00:50:50;;;;;;;2.15;1.85;;;;;;;;;;4973806;28;20051;-65
2021/12/11 00:53:54;;;;;;;1.90;1.60;;;;;;;;;;4973573;28;20125;-65
2021/12/11 00:56:29;;;;;;;3.30;1.90;;;;;;;;;;4972387;28;20058;-65
2021/12/11 00:59:00;;;;;;;2.85;2.15;;;;;;;;;;4973325;28;20058;-65
2021/12/11 01:01:32;;;;;;;2.58;1.70;;;;;;;;;;4973640;28;20047;-65
2021/12/11 01:04:10;;;;;;;3.80;2.35;;;;;;;;;;4972993;28;20469;-66
2021/12/11 01:06:45;;;;;;;3.22;2.00;;;;;;;;;;4973394;28;20050;-65
2021/12/11 01:09:36;;;;;;;4.63;1.98;;;;;;;;;;4973068;28;20098;-66
2021/12/11 01:12:08;;;;;;;3.50;1.80;;;;;;;;;;4967959;28;20051;-66
2021/12/11 01:14:41;;;;;;;3.55;2.40;;;;;;;;;;4972909;28;20585;-66
2021/12/11 01:17:21;;;;;;;2.30;1.75;;;;;;;;;;4973149;28;20047;-66
2021/12/11 01:19:52;;;;;;;2.03;1.70;;;;;;;;;;4973159;28;20097;-65
2021/12/11 01:22:33;;;;;;;1.73;1.58;;;;;;;;;;4973183;28;20055;-66
2021/12/11 01:25:18;;;;;;;2.35;1.65;;;;;;;;;;4972817;28;20055;-66
2021/12/11 01:27:48;;;;;;;2.90;1.40;;;;;;;;;;4973351;28;20059;-66
2021/12/11 01:30:25;;;;;;;2.38;1.52;;;;;;;;;;4972890;28;20047;-65
2021/12/11 01:32:52;;;;;;;2.03;1.50;;;;;;;;;;4972760;28;20047;-65
2021/12/11 01:35:20;;;;;;;1.95;1.38;;;;;;;;;;4972842;28;20518;-65
2021/12/11 01:37:48;;;;;;;3.35;1.30;;;;;;;;;;4972909;28;20097;-65
2021/12/11 01:40:18;;;;;;;2.47;1.15;;;;;;;;;;4971647;28;20110;-65
2021/12/11 01:42:46;;;;;;;1.70;1.42;;;;;;;;;;4972779;28;20070;-65
2021/12/11 01:45:14;;;;;;;4.40;1.95;;;;;;;;;;4972545;28;20498;-65
2021/12/11 01:47:45;;;;;;;2.17;1.73;;;;;;;;;;4972771;28;20070;-66
2021/12/11 01:50:14;;;;;;;2.15;1.23;;;;;;;;;;4975335;28;20047;-66
2021/12/11 01:52:49;;;;;;;1.73;1.45;;;;;;;;;;4976834;28;20054;-65
2021/12/11 01:55:22;;;;;;;1.70;1.60;;;;;;;;;;4976903;28;20062;-65
2021/12/11 01:57:51;;;;;;;3.13;1.70;;;;;;;;;;4976735;28;20110;-65
2021/12/11 02:00:27;;;;;;;1.20;1.10;;;;;;;;;;4976700;28;20054;-64
2021/12/11 02:02:56;;;;;;;1.52;1.30;;;;;;;;;;4976392;28;20050;-63
2021/12/11 02:05:25;;;;;;;1.48;1.30;;;;;;;;;;4976521;28;20130;-65
2021/12/11 02:07:56;;;;;;;1.70;1.50;;;;;;;;;;4976569;28;20051;-65
2021/12/11 02:10:46;;;;;;;2.15;1.80;;;;;;;;;;4976554;28;20051;-65
2021/12/11 02:15:49;;;;;;;2.10;1.20;;;;;;;;;;4954655;28;20405;-66
2021/12/11 02:18:18;;;;;;;2.25;1.50;;;;;;;;;;4957195;28;20047;-66
2021/12/11 02:20:57;;;;;;;2.65;1.88;;;;;;;;;;4955990;29;20429;-66
2021/12/11 02:23:25;;;;;;;2.40;1.77;;;;;;;;;;4955911;29;20070;-65
2021/12/11 02:25:54;;;;;;;2.92;1.80;;;;;;;;;;4956960;29;20051;-65
2021/12/11 02:28:27;;;;;;;2.40;1.73;;;;;;;;;;4956995;29;20110;-65
2021/12/11 02:31:05;;;;;;;3.85;1.92;;;;;;;;;;4956972;29;20051;-65
2021/12/11 02:33:45;;;;;;;1.92;1.58;;;;;;;;;;4956624;29;20055;-65
2021/12/11 02:36:18;;;;;;;7.22;3.63;;;;;;;;;;4956688;29;20074;-65
2021/12/11 02:38:59;;;;;;;3.00;2.17;;;;;;;;;;4956775;29;20494;-65
2021/12/11 02:41:58;;;;;;;6.85;3.08;;;;;;;;;;4956736;28;20549;-65
2021/12/11 02:44:27;;;;;;;3.65;3.30;;;;;;;;;;4956697;29;20066;-65
2021/12/11 02:47:00;;;;;;;2.72;2.30;;;;;;;;;;4956528;29;20569;-65
2021/12/11 02:49:50;;;;;;;3.13;2.58;;;;;;;;;;4956677;29;20051;-65
2021/12/11 02:52:20;;;;;;;4.00;2.58;;;;;;;;;;4956645;29;20059;-65
2021/12/11 02:54:56;;;;;;;5.82;2.63;;;;;;;;;;4956335;28;20308;-65
2021/12/11 02:57:27;;;;;;;3.13;2.47;;;;;;;;;;4956536;29;20106;-65
2021/12/11 02:59:54;;;;;;;3.58;3.08;;;;;;;;;;4956468;28;20561;-65
2021/12/11 03:02:24;;;;;;;3.75;3.20;;;;;;;;;;4955617;28;20055;-65
2021/12/11 03:04:55;;;;;;;3.42;3.13;;;;;;;;;;4956232;29;20053;-65
2021/12/11 03:07:34;;;;;;;3.92;3.22;;;;;;;;;;4956222;29;20055;-65
2021/12/11 03:10:03;;;;;;;4.15;3.50;;;;;;;;;;4956228;28;20494;-65
2021/12/11 03:12:29;;;;;;;3.67;3.22;;;;;;;;;;4956255;28;20469;-65
2021/12/11 03:14:56;;;;;;;4.28;3.67;;;;;;;;;;4940018;29;20079;-65
2021/12/11 03:17:23;;;;;;;4.40;3.65;;;;;;;;;;4937052;29;20056;-65
2021/12/11 03:19:52;;;;;;;4.80;4.05;;;;;;;;;;4936961;29;20115;-65
2021/12/11 03:22:22;;;;;;;4.72;4.32;;;;;;;;;;4936780;29;20075;-65
2021/12/11 03:24:49;;;;;;;5.78;4.63;;;;;;;;;;4936709;29;20173;-65
2021/12/11 03:27:16;;;;;;;6.60;4.70;;;;;;;;;;4951329;29;20106;-65
2021/12/11 03:29:42;;;;;;;4.88;4.32;;;;;;;;;;4936818;29;20106;-65
2021/12/11 03:32:10;;;;;;;7.00;5.00;;;;;;;;;;4936759;29;20569;-65
2021/12/11 03:34:43;;;;;;;5.50;4.55;;;;;;;;;;4936905;29;20124;-65
2021/12/11 03:37:10;;;;;;;6.43;4.95;;;;;;;;;;4936638;29;20059;-65
2021/12/11 03:39:40;;;;;;;6.18;5.38;;;;;;;;;;4936938;29;20570;-65
2021/12/11 03:42:14;;;;;;;8.68;5.40;;;;;;;;;;4936469;29;20106;-66
2021/12/11 03:44:41;;;;;;;5.82;5.28;;;;;;;;;;4936353;29;20059;-65
2021/12/11 03:47:14;;;;;;;6.32;5.07;;;;;;;;;;4936485;29;20075;-65
2021/12/11 03:49:40;;;;;;;;;;;;;;;;;;4936790;29;20086;-66
2021/12/11 03:52:09;;;;;;;5.63;4.85;;;;;;;;;;4936249;29;19978;-65
2021/12/11 03:54:39;;;;;;;6.00;5.40;;;;;;;;;;4936036;29;20047;-65
2021/12/11 03:57:07;;;;;;;5.20;4.65;;;;;;;;;;4936188;29;20108;-65
2021/12/11 03:59:34;;;;;;;6.07;4.82;;;;;;;;;;4950851;28;20048;-65
2021/12/11 04:02:05;;;;;;;6.18;5.57;;;;;;;;;;4936110;29;20051;-65
2021/12/11 04:04:36;;;;;;;6.85;6.03;;;;;;;;;;4936151;29;20055;-65
2021/12/11 04:07:05;;;;;;;6.90;6.10;;;;;;;;;;4936252;29;20103;-65
2021/12/11 04:09:32;;;;;;;6.00;5.40;;;;;;;;;;4936046;29;20103;-65
2021/12/11 04:12:00;;;;;;;7.60;6.45;;;;;;;;;;4935923;29;20110;-65
2021/12/11 04:14:30;;;;;;;7.60;6.80;;;;;;;;;;4935687;29;20051;-64
2021/12/11 04:16:58;;;;;;;8.32;6.57;;;;;;;;;;4935899;29;20055;-65
2021/12/11 04:19:26;;;;;;;7.53;6.68;;;;;;;;;;4935997;29;20044;-65
2021/12/11 04:21:54;;;;;;;9.23;7.53;;;;;;;;;;4935779;29;20052;-65
2021/12/11 04:24:23;;;;;;;9.48;6.82;;;;;;;;;;4935564;29;20055;-65
2021/12/11 04:26:52;;;;;;;8.27;7.47;;;;;;;;;;4935701;29;20510;-65
2021/12/11 04:29:19;;;;;;;9.90;7.63;;;;;;;;;;4944920;29;20405;-65
2021/12/11 04:31:47;;;;;;;8.88;7.68;;;;;;;;;;4954868;29;20492;-65
2021/12/11 04:34:17;;;;;;;9.23;7.82;;;;;;;;;;4954361;28;20055;-65
2021/12/11 04:36:52;;;;;;;9.52;8.00;;;;;;;;;;4954852;28;20047;-65
2021/12/11 04:39:19;;;;;;;10.57;8.35;;;;;;;;;;4954862;28;20106;-65
2021/12/11 04:41:58;;;;;;;10.23;8.23;;;;;;;;;;4954696;28;20055;-65
2021/12/11 04:44:32;;;;;;;9.63;8.23;;;;;;;;;;4945299;28;20060;-66
2021/12/11 04:46:59;;;;;;;9.65;8.65;;;;;;;;;;4936475;29;20052;-66
2021/12/11 04:49:37;;;;;;;9.77;8.60;;;;;;;;;;4938737;29;20076;-66
2021/12/11 04:52:11;;;;;;;14.65;9.50;;;;;;;;;;4938446;29;20048;-66
2021/12/11 04:54:54;;;;;;;10.18;8.65;;;;;;;;;;4939627;29;20157;-66
2021/12/11 05:03:06;;;;;;;11.30;10.00;;;;;;;;;;4942100;29;20079;-66
2021/12/11 05:13:27;;;;;;;12.13;10.13;;;;;;;;;;4925948;29;20130;-66
2021/12/11 05:15:59;;;;;;;13.20;10.82;;;;;;;;;;4938776;29;20111;-66
2021/12/11 05:18:28;;;;;;;13.43;11.23;;;;;;;;;;4941165;29;20055;-66
2021/12/11 05:20:59;;;;;;;13.07;9.52;;;;;;;;;;4938483;29;20052;-65
2021/12/11 05:23:26;;;;;;;14.68;10.57;;;;;;;;;;4934363;29;20115;-65
2021/12/11 05:25:53;;;;;;;13.13;11.15;;;;;;;;;;4934425;29;20079;-66
2021/12/11 05:28:20;;;;;;;13.13;9.57;;;;;;;;;;4947274;29;20148;-65
2021/12/11 05:30:49;;;;;;;13.75;11.48;;;;;;;;;;4952577;29;20051;-65
2021/12/11 05:33:17;;;;;;;13.48;10.75;;;;;;;;;;4951803;28;20106;-65
2021/12/11 05:35:43;;;;;;;14.18;11.27;;;;;;;;;;4953716;28;20055;-65
2021/12/11 05:38:11;;;;;;;12.43;9.57;;;;;;;;;;4953683;28;20430;-65
2021/12/11 05:40:41;;;;;;;10.90;9.05;;;;;;;;;;4953586;28;20047;-65
2021/12/11 05:43:08;;;;;;;11.38;9.98;;;;;;;;;;4953472;29;20051;-65
2021/12/11 05:45:35;;;;;;;11.82;10.00;;;;;;;;;;4953581;29;20106;-65
2021/12/11 05:48:02;;;;;;;13.40;11.05;;;;;;;;;;4953460;28;20055;-65
2021/12/11 05:50:33;;;;;;;12.98;10.38;;;;;;;;;;4953619;28;20043;-65
2021/12/11 05:53:00;;;;;;;15.35;12.38;;;;;;;;;;4953706;28;20075;-65
2021/12/11 05:55:29;;;;;;;15.68;12.93;;;;;;;;;;4953564;28;20106;-65
2021/12/11 05:57:58;;;;;;;15.02;12.27;;;;;;;;;;4953468;28;20086;-65
2021/12/11 06:00:28;;;;;;;17.83;13.48;;;;;;;;;;4952649;28;20106;-65
2021/12/11 06:02:57;;;;;;;13.00;11.35;;;;;;;;;;4934140;29;20051;-66
2021/12/11 06:05:24;;;;;;;16.38;13.10;;;;;;;;;;4934434;29;20047;-65
2021/12/11 06:07:52;;;;;;;12.80;11.45;;;;;;;;;;4934206;29;20059;-65
2021/12/11 06:10:19;;;;;;;14.23;11.65;;;;;;;;;;4948801;28;20061;-65
2021/12/11 06:12:48;;;;;;;15.63;12.07;;;;;;;;;;4953190;29;20105;-64
2021/12/11 06:15:15;;;;;;;15.30;12.27;;;;;;;;;;4953319;28;20102;-65
2021/12/11 06:17:43;;;;;;;15.52;11.95;;;;;;;;;;4953339;29;20055;-65
2021/12/11 06:20:12;;;;;;;16.67;13.32;;;;;;;;;;4939922;29;20081;-64
2021/12/11 06:22:39;;;;;;;16.73;13.73;;;;;;;;;;4948484;29;20055;-65
2021/12/11 06:25:09;;;;;;;15.10;12.13;;;;;;;;;;4934121;29;20503;-65
2021/12/11 06:27:37;;;;;;;16.70;12.90;;;;;;;;;;4934064;29;20051;-65
2021/12/11 06:30:08;;;;;;;16.08;13.57;;;;;;;;;;4934203;29;20054;-65
2021/12/11 06:32:35;;;;;;;20.83;14.80;;;;;;;;;;4933890;29;20112;-65
2021/12/11 06:35:10;;;;;;;18.45;13.88;;;;;;;;;;4934042;29;20111;-65
2021/12/11 06:37:37;;;;;;;22.52;16.85;;;;;;;;;;4936882;29;20056;-65
2021/12/11 06:40:04;;;;;;;23.25;16.40;;;;;;;;;;4942418;29;20095;-65
2021/12/11 06:42:31;;;;;;;21.70;15.30;;;;;;;;;;4943888;29;20054;-65
2021/12/11 06:44:58;;;;;;;21.90;16.65;;;;;;;;;;4956240;28;20074;-65
2021/12/11 06:47:24;;;;;;;18.10;14.43;;;;;;;;;;4956789;29;20421;-65
2021/12/11 06:49:51;;;;;;;20.92;15.15;;;;;;;;;;4946926;28;20048;-65
2021/12/11 06:52:21;;;;;;;21.55;15.32;;;;;;;;;;4937494;29;20047;-65
2021/12/11 06:54:48;;;;;;;20.55;15.52;;;;;;;;;;4937204;29;20052;-65
2021/12/11 06:57:15;;;;;;;19.33;14.98;;;;;;;;;;4937434;29;20055;-65
2021/12/11 06:59:42;;;;;;;19.00;14.63;;;;;;;;;;4938378;29;20043;-65
2021/12/11 07:02:08;;;;;;;24.42;16.27;;;;;;;;;;4937123;29;20473;-65
2021/12/11 07:04:35;;;;;;;22.58;15.95;;;;;;;;;;4936943;29;20503;-65
2021/12/11 07:07:02;;;;;;;21.27;15.05;;;;;;;;;;4937156;29;20056;-65
2021/12/11 07:09:29;;;;;;;24.98;17.10;;;;;;;;;;4943585;29;20425;-66
2021/12/11 07:11:57;;;;;;;21.77;14.95;;;;;;;;;;4956296;28;20098;-66
2021/12/11 07:14:27;;;;;;;23.50;16.13;;;;;;;;;;4955827;29;20461;-65
2021/12/11 07:16:54;;;;;;;24.92;17.40;;;;;;;;;;4956074;28;20486;-65
2021/12/11 07:19:20;;;;;;;26.90;17.88;;;;;;;;;;4954281;28;20051;-66
2021/12/11 07:21:50;;;;;;;23.92;16.40;;;;;;;;;;4945364;28;20051;-66
2021/12/11 07:24:19;;;;;;;26.58;17.23;;;;;;;;;;4956027;29;20138;-66
2021/12/11 07:26:46;;;;;;;34.72;20.85;;;;;;;;;;4956073;28;20051;-66
2021/12/11 07:29:15;;;;;;;28.98;19.48;;;;;;;;;;4954203;28;20075;-65
2021/12/11 07:31:43;;;;;;;32.42;21.83;;;;;;;;;;4936762;29;20463;-66
2021/12/11 07:34:10;;;;;;;25.25;18.20;;;;;;;;;;4936428;29;20111;-65
2021/12/11 07:36:37;;;;;;;25.80;18.00;;;;;;;;;;4936541;29;20107;-65
2021/12/11 07:39:08;;;;;;;24.27;17.05;;;;;;;;;;4936986;29;20111;-65
2021/12/11 07:41:34;;;;;;;24.05;17.33;;;;;;;;;;4936591;29;20059;-65
2021/12/11 07:44:02;;;;;;;25.50;17.63;;;;;;;;;;4948128;28;20055;-64
2021/12/11 07:46:29;;;;;;;27.90;17.88;;;;;;;;;;4955576;28;20051;-65
2021/12/11 07:48:57;;;;;;;28.52;17.70;;;;;;;;;;4955168;28;20057;-64
2021/12/11 07:51:26;;;;;;;31.15;18.83;;;;;;;;;;4955479;29;20110;-64
2021/12/11 07:53:57;;;;;;;28.30;19.15;;;;;;;;;;4955336;28;20513;-65
2021/12/11 07:56:24;;;;;;;35.63;21.65;;;;;;;;;;4955722;29;20051;-65
2021/12/11 07:58:54;;;;;;;37.45;23.02;;;;;;;;;;4955433;28;20114;-65
2021/12/11 08:01:21;;;;;;;31.73;20.67;;;;;;;;;;4936130;28;20502;-64
2021/12/11 08:03:47;;;;;;;31.27;20.88;;;;;;;;;;4936071;29;20047;-64
2021/12/11 08:06:14;;;;;;;31.77;18.95;;;;;;;;;;4936108;29;20059;-65
2021/12/11 08:08:42;;;;;;;28.80;19.27;;;;;;;;;;4936158;29;20055;-65
2021/12/11 08:11:13;;;;;;;24.10;16.15;;;;;;;;;;4938394;29;20055;-64
2021/12/11 08:14:05;;;;;;;25.88;17.60;;;;;;;;;;4953305;29;20048;-67
2021/12/11 08:16:43;;;;;;;30.67;18.48;;;;;;;;;;4953013;28;20047;-64
2021/12/11 08:19:11;;;;;;;29.02;19.02;;;;;;;;;;4954937;29;20491;-64
2021/12/11 08:21:37;;;;;;;30.42;19.38;;;;;;;;;;4954966;29;20049;-63
2021/12/11 08:24:06;;;;;;;24.92;16.83;;;;;;;;;;4954614;28;20071;-64
2021/12/11 08:26:37;;;;;;;29.15;19.27;;;;;;;;;;4954935;28;20051;-64
2021/12/11 08:29:07;;;;;;;22.77;16.00;;;;;;;;;;4954612;29;20540;-64
2021/12/11 08:31:35;;;;;;;25.48;16.35;;;;;;;;;;4954131;29;20047;-64
2021/12/11 08:34:02;;;;;;;25.70;17.30;;;;;;;;;;4953946;28;20495;-65
2021/12/11 08:36:29;;;;;;;28.35;18.52;;;;;;;;;;4954022;28;20078;-64
2021/12/11 08:38:56;;;;;;;23.80;15.43;;;;;;;;;;4954115;28;20047;-66
2021/12/11 08:41:24;;;;;;;23.45;16.85;;;;;;;;;;4960490;28;20406;-63
2021/12/11 08:43:58;;;;;;;25.73;16.83;;;;;;;;;;4953939;28;20114;-65
2021/12/11 08:46:29;;;;;;;25.00;17.23;;;;;;;;;;4954167;28;20106;-64
2021/12/11 08:49:04;;;;;;;25.85;17.13;;;;;;;;;;4954375;29;20066;-64
2021/12/11 08:51:40;;;;;;;29.42;18.90;;;;;;;;;;4944057;29;20091;-64
2021/12/11 08:54:07;;;;;;;27.48;16.30;;;;;;;;;;4954058;28;20051;-65
2021/12/11 08:56:35;;;;;;;31.05;18.77;;;;;;;;;;4954685;29;20051;-65
2021/12/11 08:59:04;;;;;;;24.65;17.13;;;;;;;;;;4953288;28;20051;-63
2021/12/11 09:01:36;;;;;;;33.40;19.52;;;;;;;;;;4935054;29;20645;-65
2021/12/11 09:04:17;;;;;;;29.52;19.02;;;;;;;;;;4928623;29;20059;-65
2021/12/11 09:07:06;;;;;;;25.42;17.33;;;;;;;;;;4944789;29;20051;-66
2021/12/11 09:09:39;;;;;;;26.58;17.85;;;;;;;;;;4943166;29;20114;-65
2021/12/11 09:12:14;;;;;;;26.77;18.02;;;;;;;;;;4939158;28;20052;-65
2021/12/11 09:14:43;;;;;;;29.67;18.42;;;;;;;;;;4944807;29;20458;-67
2021/12/11 09:17:19;;;;;;;41.47;23.00;;;;;;;;;;4940063;28;20065;-66
2021/12/11 09:19:52;;;;;;;32.30;20.65;;;;;;;;;;4954543;28;20053;-69
2021/12/11 09:22:31;;;;;;;32.53;19.50;;;;;;;;;;4942482;28;20494;-67
2021/12/11 09:25:16;;;;;;;30.05;20.10;;;;;;;;;;4939932;29;20055;-67
2021/12/11 09:27:57;;;;;;;28.30;18.95;;;;;;;;;;4942684;28;20051;-66
2021/12/11 09:30:30;;;;;;;28.60;18.90;;;;;;;;;;4943508;29;20462;-66
2021/12/11 09:33:04;;;;;;;25.02;17.75;;;;;;;;;;4944247;29;20130;-71
2021/12/11 09:35:37;;;;;;;29.67;18.45;;;;;;;;;;4957845;28;20051;-65
2021/12/11 09:38:24;;;;;;;30.35;19.77;;;;;;;;;;4944574;28;20462;-65
2021/12/11 09:40:51;;;;;;;29.30;19.77;;;;;;;;;;4945023;28;20047;-65
2021/12/11 09:43:41;;;;;;;22.80;16.42;;;;;;;;;;4940087;29;20130;-70
2021/12/11 09:46:11;;;;;;;26.02;17.50;;;;;;;;;;4954878;28;20073;-71
2021/12/11 09:48:40;;;;;;;22.42;15.75;;;;;;;;;;4941438;29;20716;-71
2021/12/11 09:51:12;;;;;;;17.98;14.00;;;;;;;;;;4939981;28;20082;-69
2021/12/11 09:53:46;;;;;;;20.17;14.60;;;;;;;;;;4950611;28;20062;-71
2021/12/11 09:56:22;;;;;;;18.60;13.70;;;;;;;;;;4945542;28;20578;-70
2021/12/11 09:58:49;;;;;;;19.92;13.43;;;;;;;;;;4955601;28;20059;-66
2021/12/11 10:01:47;;;;;;;20.73;14.38;;;;;;;;;;4940253;28;20043;-68
2021/12/11 10:04:22;;;;;;;18.38;12.88;;;;;;;;;;4937731;28;20482;-65
2021/12/11 10:07:26;;;;;;;15.70;12.02;;;;;;;;;;4940366;28;20453;-68
2021/12/11 10:09:44;;;;;;;18.60;13.65;;;;;;;;;;4941064;28;20102;-71
2021/12/11 10:12:24;;;;;;;16.55;12.32;;;;;;;;;;4942307;29;20102;-72
2021/12/11 10:15:07;;;;;;;16.40;12.75;;;;;;;;;;4945465;28;20052;-68
2021/12/11 10:17:40;;;;;;;16.08;12.27;;;;;;;;;;4947625;29;20078;-67
2021/12/11 10:20:20;;;;;;;13.98;10.02;;;;;;;;;;4942764;29;20505;-68
2021/12/11 10:22:48;;;;;;;13.35;10.23;;;;;;;;;;4942374;29;20474;-67
2021/12/11 10:25:20;;;;;;;12.65;10.52;;;;;;;;;;4945116;28;20134;-67
2021/12/11 10:27:47;;;;;;;15.32;11.15;;;;;;;;;;4942541;29;20047;-66
2021/12/11 10:30:22;;;;;;;15.50;11.40;;;;;;;;;;4943116;28;20556;-68
2021/12/11 10:32:49;;;;;;;13.52;10.93;;;;;;;;;;4943780;28;20051;-67
2021/12/11 10:35:19;;;;;;;12.65;10.50;;;;;;;;;;4941528;28;20142;-67
2021/12/11 10:37:47;;;;;;;15.10;11.30;;;;;;;;;;4946265;29;20099;-68
2021/12/11 10:40:38;;;;;;;13.00;9.63;;;;;;;;;;4956618;28;20067;-68
2021/12/11 10:43:18;;;;;;;13.73;9.23;;;;;;;;;;4946817;28;20044;-67
2021/12/11 10:45:46;;;;;;;11.35;8.43;;;;;;;;;;4947052;28;20051;-69
2021/12/11 10:48:15;;;;;;;12.95;9.38;;;;;;;;;;4942875;28;20125;-71
2021/12/11 10:50:45;;;;;;;14.95;10.80;;;;;;;;;;4944156;28;20474;-72
2021/12/11 10:53:19;;;;;;;10.30;8.05;;;;;;;;;;4944636;28;20515;-70
2021/12/11 10:55:46;;;;;;;9.65;7.82;;;;;;;;;;4944310;28;20111;-70
2021/12/11 10:58:17;;;;;;;11.80;9.20;;;;;;;;;;4958374;28;20056;-70
2021/12/11 11:00:53;;;;;;;8.68;7.03;;;;;;;;;;4952020;28;20106;-70
2021/12/11 11:03:21;;;;;;;12.27;9.40;;;;;;;;;;4942485;29;20062;-71
2021/12/11 11:05:48;;;;;;;12.10;8.40;;;;;;;;;;4944939;28;20047;-71
2021/12/11 11:08:15;;;;;;;9.90;7.85;;;;;;;;;;4941440;29;20059;-70
2021/12/11 11:10:50;;;;;;;12.18;8.35;;;;;;;;;;4956024;28;20455;-71
2021/12/11 11:13:18;;;;;;;9.43;7.57;;;;;;;;;;4955967;28;20055;-68
2021/12/11 11:15:45;;;;;;;9.15;6.25;;;;;;;;;;4956029;28;20043;-71
2021/12/11 11:18:14;;;;;;;8.93;6.65;;;;;;;;;;4949026;29;20051;-71
2021/12/11 11:20:49;;;;;;;9.63;7.18;;;;;;;;;;4943254;28;20075;-69
2021/12/11 11:23:17;;;;;;;8.48;6.93;;;;;;;;;;4949320;28;20582;-67
2021/12/11 11:25:46;;;;;;;10.18;7.88;;;;;;;;;;4944604;28;20055;-67
2021/12/11 11:28:16;;;;;;;12.90;8.27;;;;;;;;;;4944503;28;20376;-68
2021/12/11 11:30:47;;;;;;;10.82;7.30;;;;;;;;;;4942284;29;20117;-66
2021/12/11 11:33:14;;;;;;;12.77;8.18;;;;;;;;;;4943089;28;20501;-67
2021/12/11 11:35:43;;;;;;;8.80;7.35;;;;;;;;;;4943105;28;20111;-67
2021/12/11 11:38:17;;;;;;;7.97;6.57;;;;;;;;;;4940781;29;20110;-68
2021/12/11 11:40:47;;;;;;;7.95;6.60;;;;;;;;;;4942618;29;20051;-68
2021/12/11 11:43:15;;;;;;;8.25;7.05;;;;;;;;;;4941462;29;20109;-68
2021/12/11 11:45:42;;;;;;;9.45;6.93;;;;;;;;;;4942006;28;20585;-68
2021/12/11 11:48:09;;;;;;;9.07;6.63;;;;;;;;;;4957866;28;20059;-68
2021/12/11 11:50:40;;;;;;;8.35;6.78;;;;;;;;;;4944402;29;20051;-67
2021/12/11 11:53:07;;;;;;;8.38;6.90;;;;;;;;;;4961523;28;20122;-66
2021/12/11 11:55:39;;;;;;;9.27;6.75;;;;;;;;;;4945268;28;20557;-66
2021/12/11 11:58:06;;;;;;;8.13;6.55;;;;;;;;;;4946266;29;20051;-66
2021/12/11 12:00:43;;;;;;;9.38;7.20;;;;;;;;;;4941470;29;20052;-66
2021/12/11 12:03:12;;;;;;;7.95;6.82;;;;;;;;;;4946649;29;20066;-66
2021/12/11 12:05:40;;;;;;;9.73;7.30;;;;;;;;;;4945246;28;20043;-66
2021/12/11 12:08:09;;;;;;;8.85;6.90;;;;;;;;;;4940735;29;20055;-65
2021/12/11 12:10:36;;;;;;;7.88;6.32;;;;;;;;;;4943480;29;20558;-65
2021/12/11 12:13:07;;;;;;;10.75;6.63;;;;;;;;;;4940588;29;20099;-65
2021/12/11 12:15:42;;;;;;;10.45;6.75;;;;;;;;;;4942392;29;20051;-64
2021/12/11 12:18:09;;;;;;;7.05;5.90;;;;;;;;;;4941667;29;20099;-65
2021/12/11 12:20:40;;;;;;;7.78;6.53;;;;;;;;;;4941092;29;20094;-65
2021/12/11 12:23:10;;;;;;;9.35;7.07;;;;;;;;;;4942228;28;20127;-65
2021/12/11 12:25:42;;;;;;;9.70;6.00;;;;;;;;;;4943619;29;20052;-65
2021/12/11 12:28:09;;;;;;;9.05;6.53;;;;;;;;;;4941992;28;20102;-65
2021/12/11 12:30:44;;;;;;;7.30;6.50;;;;;;;;;;4940325;29;20103;-65
2021/12/11 12:33:11;;;;;;;9.40;6.05;;;;;;;;;;4939878;29;20499;-65
2021/12/11 12:35:38;;;;;;;9.05;6.18;;;;;;;;;;4943063;28;20114;-65
2021/12/11 12:38:06;;;;;;;11.68;6.35;;;;;;;;;;4939889;29;20506;-65
2021/12/11 12:40:41;;;;;;;7.57;5.95;;;;;;;;;;4943959;29;20051;-65
2021/12/11 12:43:12;;;;;;;9.40;6.78;;;;;;;;;;4939868;29;20098;-65
2021/12/11 12:45:48;;;;;;;9.82;6.90;;;;;;;;;;4944129;28;20224;-65
2021/12/11 12:48:18;;;;;;;8.43;7.00;;;;;;;;;;4943873;29;20091;-65
2021/12/11 12:50:55;;;;;;;9.15;7.38;;;;;;;;;;4940035;29;20051;-64
2021/12/11 12:53:23;;;;;;;10.13;7.15;;;;;;;;;;4941050;28;20110;-65
2021/12/11 12:55:57;;;;;;;9.30;7.30;;;;;;;;;;4940643;28;20095;-65
2021/12/11 12:58:36;;;;;;;8.38;6.55;;;;;;;;;;4939826;29;20051;-65
2021/12/11 13:01:10;;;;;;;8.10;6.65;;;;;;;;;;4948896;29;20125;-64
2021/12/11 13:03:40;;;;;;;8.55;7.45;;;;;;;;;;4949347;29;20070;-65
2021/12/11 13:06:15;;;;;;;9.70;7.22;;;;;;;;;;4943935;28;20146;-65
2021/12/11 13:09:09;;;;;;;13.18;8.25;;;;;;;;;;4941749;29;20051;-64
2021/12/11 13:11:49;;;;;;;10.52;7.90;;;;;;;;;;4941712;28;20050;-65
2021/12/11 13:14:16;;;;;;;10.93;7.50;;;;;;;;;;4939316;29;20065;-64
2021/12/11 13:16:46;;;;;;;12.25;8.20;;;;;;;;;;4940014;29;20098;-65
2021/12/11 13:19:19;;;;;;;9.80;7.68;;;;;;;;;;4941687;29;20397;-65
2021/12/11 13:21:47;;;;;;;;;;;;;;;;;;4940386;28;20044;-65
2021/12/11 13:24:14;;;;;;;10.20;7.70;;;;;;;;;;4941965;28;19945;-64
2021/12/11 13:26:43;;;;;;;11.93;8.63;;;;;;;;;;4941778;28;20052;-65
2021/12/11 13:29:22;;;;;;;9.02;6.80;;;;;;;;;;4937290;28;20086;-70
2021/12/11 13:32:00;;;;;;;11.48;7.53;;;;;;;;;;4938363;28;20040;-67
2021/12/11 13:34:32;;;;;;;12.30;8.45;;;;;;;;;;4939940;28;20055;-69
2021/12/11 13:37:00;;;;;;;11.45;7.95;;;;;;;;;;4959749;28;20050;-67
2021/12/11 13:39:28;;;;;;;12.30;8.38;;;;;;;;;;4948447;29;20051;-69
2021/12/11 13:41:59;;;;;;;9.57;7.35;;;;;;;;;;4948429;28;20050;-68
2021/12/11 13:44:32;;;;;;;10.73;7.90;;;;;;;;;;4948753;28;20059;-68
2021/12/11 13:47:00;;;;;;;10.60;7.50;;;;;;;;;;4945983;28;20055;-69
2021/12/11 13:49:28;;;;;;;12.23;8.60;;;;;;;;;;4949515;29;20074;-66
2021/12/11 13:51:55;;;;;;;12.48;8.05;;;;;;;;;;4945367;29;20126;-66
2021/12/11 13:54:23;;;;;;;14.88;8.63;;;;;;;;;;4948643;28;20574;-66
2021/12/11 13:56:56;;;;;;;12.38;8.85;;;;;;;;;;4947348;29;20058;-66
2021/12/11 13:59:23;;;;;;;18.77;11.63;;;;;;;;;;4948266;29;20044;-66
2021/12/11 14:01:51;;;;;;;22.85;12.18;;;;;;;;;;4948477;29;20048;-66
2021/12/11 14:04:19;;;;;;;21.23;12.10;;;;;;;;;;4945614;28;20051;-66
2021/12/11 14:06:58;;;;;;;12.45;7.97;;;;;;;;;;4947687;28;20566;-65
2021/12/11 14:09:26;;;;;;;10.75;7.28;;;;;;;;;;4949327;29;20047;-65
2021/12/11 14:11:52;;;;;;;12.02;8.90;;;;;;;;;;4948470;29;20454;-65
2021/12/11 14:16:47;;;;;;;11.52;8.20;;;;;;;;;;5015007;28;20439;-66
2021/12/11 14:19:15;;;;;;;12.48;8.90;;;;;;;;;;5020567;28;20045;-67
2021/12/11 14:21:42;;;;;;;13.00;8.73;;;;;;;;;;5017683;28;20492;-67
2021/12/11 14:24:09;;;;;;;12.80;8.13;;;;;;;;;;5023734;28;20049;-66
2021/12/11 14:26:37;;;;;;;11.30;8.13;;;;;;;;;;5009365;28;20463;-66
2021/12/11 14:29:07;;;;;;;11.02;7.70;;;;;;;;;;5008584;28;20046;-67
2021/12/11 14:31:36;;;;;;;13.27;7.78;;;;;;;;;;5009542;28;20061;-65
2021/12/11 14:34:03;;;;;;;9.10;7.30;;;;;;;;;;5009497;28;20041;-66
2021/12/11 14:36:31;;;;;;;12.18;8.18;;;;;;;;;;5009613;28;20116;-65
2021/12/11 14:39:04;;;;;;;11.43;8.25;;;;;;;;;;5008788;28;20049;-66
2021/12/11 14:41:35;;;;;;;11.05;8.18;;;;;;;;;;4995239;28;20104;-66
2021/12/11 14:44:09;;;;;;;7.32;6.45;;;;;;;;;;5009246;28;20046;-66
2021/12/11 14:46:37;;;;;;;8.85;6.80;;;;;;;;;;5006114;28;20112;-66
2021/12/11 14:49:06;;;;;;;9.88;6.30;;;;;;;;;;5008581;28;20129;-67
2021/12/11 14:51:33;;;;;;;10.68;7.13;;;;;;;;;;5006186;28;20049;-65
2021/12/11 14:54:00;;;;;;;17.23;9.32;;;;;;;;;;5009094;28;20045;-65
2021/12/11 14:56:34;;;;;;;11.35;7.60;;;;;;;;;;5009337;28;20116;-65
2021/12/11 14:59:04;;;;;;;11.55;8.02;;;;;;;;;;5012751;28;20462;-65
2021/12/11 15:01:50;;;;;;;10.70;7.40;;;;;;;;;;5012177;28;20104;-63
2021/12/11 15:04:24;;;;;;;11.77;8.15;;;;;;;;;;5007150;28;20045;-65
2021/12/11 15:06:51;;;;;;;9.60;7.00;;;;;;;;;;5009297;28;20558;-64
2021/12/11 15:09:18;;;;;;;11.35;7.78;;;;;;;;;;5012239;28;20050;-64
2021/12/11 15:11:46;;;;;;;11.52;8.10;;;;;;;;;;5012780;28;20088;-63